sensor_id;sensor_type;location;lat;lon;timestamp;pressure;altitude;pressure_sealevel;temperature;humidity
6423;BME280;3244;42.708;23.288;2023-01-25T00:00:04;96173.53;;;3.34;79.61
6423;BME280;3244;42.708;23.288;2023-01-25T00:02:31;96170.09;;;3.27;80.14
6423;BME280;3244;42.708;23.288;2023-01-25T00:04:58;96167.56;;;3.27;80.11
6423;BME280;3244;42.708;23.288;2023-01-25T00:07:24;96161.75;;;3.31;80.29
6423;BME280;3244;42.708;23.288;2023-01-25T00:09:51;96164.22;;;3.27;80.57
6423;BME280;3244;42.708;23.288;2023-01-25T00:12:19;96161.72;;;3.28;81.17
6423;BME280;3244;42.708;23.288;2023-01-25T00:14:46;96162.66;;;3.36;80.66
6423;BME280;3244;42.708;23.288;2023-01-25T00:17:13;96164.47;;;3.45;79.87
6423;BME280;3244;42.708;23.288;2023-01-25T00:19:40;96170.16;;;3.32;80.10
6423;BME280;3244;42.708;23.288;2023-01-25T00:22:06;96170.25;;;3.39;79.95
6423;BME280;3244;42.708;23.288;2023-01-25T00:24:33;96165.03;;;3.24;81.15
6423;BME280;3244;42.708;23.288;2023-01-25T00:27:00;96163.34;;;3.23;81.82
6423;BME280;3244;42.708;23.288;2023-01-25T00:29:29;96166.84;;;3.34;80.85
6423;BME280;3244;42.708;23.288;2023-01-25T00:32:06;96159.41;;;3.44;80.42
6423;BME280;3244;42.708;23.288;2023-01-25T00:34:45;96163.53;;;3.38;80.24
6423;BME280;3244;42.708;23.288;2023-01-25T00:37:18;96165.88;;;3.26;80.78
6423;BME280;3244;42.708;23.288;2023-01-25T00:39:46;96157.50;;;3.26;80.27
6423;BME280;3244;42.708;23.288;2023-01-25T00:42:14;96166.00;;;3.34;81.01
6423;BME280;3244;42.708;23.288;2023-01-25T00:44:43;96166.97;;;3.48;79.46
6423;BME280;3244;42.708;23.288;2023-01-25T00:47:10;96166.72;;;3.27;79.21
6423;BME280;3244;42.708;23.288;2023-01-25T00:49:38;96168.41;;;3.26;79.65
6423;BME280;3244;42.708;23.288;2023-01-25T00:52:06;96170.88;;;3.23;79.41
6423;BME280;3244;42.708;23.288;2023-01-25T00:54:33;96167.53;;;3.24;79.89
6423;BME280;3244;42.708;23.288;2023-01-25T00:57:00;96165.69;;;3.10;80.19
6423;BME280;3244;42.708;23.288;2023-01-25T00:59:27;96169.72;;;3.00;80.25
6423;BME280;3244;42.708;23.288;2023-01-25T01:01:55;96176.56;;;3.10;79.92
6423;BME280;3244;42.708;23.288;2023-01-25T01:04:22;96170.72;;;3.11;79.89
6423;BME280;3244;42.708;23.288;2023-01-25T01:06:50;96171.56;;;3.10;80.15
6423;BME280;3244;42.708;23.288;2023-01-25T01:09:18;96159.00;;;3.10;79.78
6423;BME280;3244;42.708;23.288;2023-01-25T01:11:46;96167.53;;;3.24;80.08
6423;BME280;3244;42.708;23.288;2023-01-25T01:14:13;96173.25;;;3.11;79.63
6423;BME280;3244;42.708;23.288;2023-01-25T01:16:40;96169.03;;;3.10;79.88
6423;BME280;3244;42.708;23.288;2023-01-25T01:19:09;96172.50;;;3.18;80.16
6423;BME280;3244;42.708;23.288;2023-01-25T01:21:36;96163.22;;;3.13;79.88
6423;BME280;3244;42.708;23.288;2023-01-25T01:24:03;96160.78;;;3.19;79.27
6423;BME280;3244;42.708;23.288;2023-01-25T01:26:30;96153.19;;;3.14;79.04
6423;BME280;3244;42.708;23.288;2023-01-25T01:28:57;96152.28;;;3.09;79.95
6423;BME280;3244;42.708;23.288;2023-01-25T01:31:24;96143.88;;;3.07;79.00
6423;BME280;3244;42.708;23.288;2023-01-25T01:33:52;96155.53;;;3.02;79.09
6423;BME280;3244;42.708;23.288;2023-01-25T01:36:22;96159.59;;;2.91;79.39
6423;BME280;3244;42.708;23.288;2023-01-25T01:38:50;96145.22;;;2.81;79.32
6423;BME280;3244;42.708;23.288;2023-01-25T01:41:17;96149.50;;;2.88;80.47
6423;BME280;3244;42.708;23.288;2023-01-25T01:43:44;96147.91;;;2.93;80.09
6423;BME280;3244;42.708;23.288;2023-01-25T01:46:14;96142.88;;;2.93;80.17
6423;BME280;3244;42.708;23.288;2023-01-25T01:48:44;96145.25;;;2.84;80.84
6423;BME280;3244;42.708;23.288;2023-01-25T01:51:17;96142.78;;;2.87;81.20
6423;BME280;3244;42.708;23.288;2023-01-25T01:53:49;96141.16;;;2.89;80.99
6423;BME280;3244;42.708;23.288;2023-01-25T01:56:20;96143.75;;;2.98;80.83
6423;BME280;3244;42.708;23.288;2023-01-25T01:58:49;96142.88;;;2.93;80.50
6423;BME280;3244;42.708;23.288;2023-01-25T02:01:18;96145.31;;;2.88;80.78
6423;BME280;3244;42.708;23.288;2023-01-25T02:03:46;96145.31;;;2.88;81.89
6423;BME280;3244;42.708;23.288;2023-01-25T02:06:19;96145.38;;;2.91;82.58
6423;BME280;3244;42.708;23.288;2023-01-25T02:08:48;96145.31;;;2.88;81.08
6423;BME280;3244;42.708;23.288;2023-01-25T02:11:18;96147.81;;;2.87;81.97
6423;BME280;3244;42.708;23.288;2023-01-25T02:13:46;96142.91;;;2.97;81.17
6423;BME280;3244;42.708;23.288;2023-01-25T02:16:15;96138.88;;;3.08;80.65
6423;BME280;3244;42.708;23.288;2023-01-25T02:18:45;96142.25;;;3.09;80.29
6423;BME280;3244;42.708;23.288;2023-01-25T02:21:12;96150.56;;;3.06;79.76
6423;BME280;3244;42.708;23.288;2023-01-25T02:23:43;96145.44;;;2.99;80.37
6423;BME280;3244;42.708;23.288;2023-01-25T02:26:16;96139.69;;;3.06;79.59
6423;BME280;3244;42.708;23.288;2023-01-25T02:28:47;96148.03;;;3.05;80.06
6423;BME280;3244;42.708;23.288;2023-01-25T02:31:15;96147.84;;;2.90;80.53
6423;BME280;3244;42.708;23.288;2023-01-25T02:33:42;96139.41;;;2.85;80.59
6423;BME280;3244;42.708;23.288;2023-01-25T02:36:19;96141.00;;;2.80;80.66
6423;BME280;3244;42.708;23.288;2023-01-25T02:38:50;96137.81;;;2.90;80.54
6423;BME280;3244;42.708;23.288;2023-01-25T02:41:24;96136.03;;;2.83;81.56
6423;BME280;3244;42.708;23.288;2023-01-25T02:43:51;96141.03;;;2.81;81.26
6423;BME280;3244;42.708;23.288;2023-01-25T02:46:22;96129.38;;;2.85;81.32
6423;BME280;3244;42.708;23.288;2023-01-25T02:48:52;96133.47;;;2.78;82.03
6423;BME280;3244;42.708;23.288;2023-01-25T02:51:19;96131.91;;;2.86;81.79
6423;BME280;3244;42.708;23.288;2023-01-25T02:53:46;96132.72;;;2.85;80.74
6423;BME280;3244;42.708;23.288;2023-01-25T02:56:13;96127.84;;;2.97;80.62
6423;BME280;3244;42.708;23.288;2023-01-25T02:58:41;96127.88;;;3.00;79.92
6423;BME280;3244;42.708;23.288;2023-01-25T03:01:08;96132.94;;;3.02;79.18
6423;BME280;3244;42.708;23.288;2023-01-25T03:03:35;96136.16;;;2.92;79.37
6423;BME280;3244;42.708;23.288;2023-01-25T03:06:02;96131.78;;;2.79;79.51
6423;BME280;3244;42.708;23.288;2023-01-25T03:08:29;96137.63;;;2.76;80.18
6423;BME280;3244;42.708;23.288;2023-01-25T03:10:56;96141.06;;;2.84;79.79
6423;BME280;3244;42.708;23.288;2023-01-25T03:13:23;96136.97;;;2.89;79.71
6423;BME280;3244;42.708;23.288;2023-01-25T03:15:57;96134.44;;;2.88;79.45
6423;BME280;3244;42.708;23.288;2023-01-25T03:18:24;96136.13;;;2.89;79.16
6423;BME280;3244;42.708;23.288;2023-01-25T03:20:51;96138.66;;;2.90;79.48
6423;BME280;3244;42.708;23.288;2023-01-25T03:23:18;96135.28;;;2.88;78.43
6423;BME280;3244;42.708;23.288;2023-01-25T03:25:45;96131.16;;;2.92;79.36
6423;BME280;3244;42.708;23.288;2023-01-25T03:28:12;96133.69;;;2.95;79.10
6423;BME280;3244;42.708;23.288;2023-01-25T03:30:38;96137.06;;;2.95;78.92
6423;BME280;3244;42.708;23.288;2023-01-25T03:33:06;96129.63;;;3.06;78.30
6423;BME280;3244;42.708;23.288;2023-01-25T03:35:33;96127.09;;;3.03;78.04
6423;BME280;3244;42.708;23.288;2023-01-25T03:38:00;96138.91;;;3.10;77.24
6423;BME280;3244;42.708;23.288;2023-01-25T03:40:27;96143.78;;;2.99;78.02
6423;BME280;3244;42.708;23.288;2023-01-25T03:42:53;96130.38;;;2.99;77.38
6423;BME280;3244;42.708;23.288;2023-01-25T03:45:20;96127.91;;;3.02;77.60
6423;BME280;3244;42.708;23.288;2023-01-25T03:47:47;96131.94;;;2.89;77.59
6423;BME280;3244;42.708;23.288;2023-01-25T03:50:15;96133.53;;;2.84;77.92
6423;BME280;3244;42.708;23.288;2023-01-25T03:52:45;96129.41;;;2.88;76.60
6423;BME280;3244;42.708;23.288;2023-01-25T03:55:24;96131.00;;;2.83;76.78
6423;BME280;3244;42.708;23.288;2023-01-25T03:57:50;96127.69;;;2.84;77.73
6423;BME280;3244;42.708;23.288;2023-01-25T04:00:18;96121.09;;;2.92;77.70
6423;BME280;3244;42.708;23.288;2023-01-25T04:02:45;96121.25;;;3.04;77.32
6423;BME280;3244;42.708;23.288;2023-01-25T04:05:12;96113.78;;;3.08;77.15
6423;BME280;3244;42.708;23.288;2023-01-25T04:07:40;96112.84;;;3.02;77.67
6423;BME280;3244;42.708;23.288;2023-01-25T04:10:08;96103.66;;;3.04;77.07
6423;BME280;3244;42.708;23.288;2023-01-25T04:12:35;96112.75;;;2.93;77.17
6423;BME280;3244;42.708;23.288;2023-01-25T04:15:03;96110.31;;;3.00;77.44
6423;BME280;3244;42.708;23.288;2023-01-25T04:17:29;96111.97;;;2.98;77.08
6423;BME280;3244;42.708;23.288;2023-01-25T04:19:56;96113.66;;;2.99;77.77
6423;BME280;3244;42.708;23.288;2023-01-25T04:22:23;96100.22;;;2.96;77.04
6423;BME280;3244;42.708;23.288;2023-01-25T04:24:51;96115.44;;;3.10;76.30
6423;BME280;3244;42.708;23.288;2023-01-25T04:27:18;96121.03;;;2.86;76.41
6423;BME280;3244;42.708;23.288;2023-01-25T04:29:44;96115.09;;;2.82;77.43
6423;BME280;3244;42.708;23.288;2023-01-25T04:32:11;96122.63;;;2.82;78.16
6423;BME280;3244;42.708;23.288;2023-01-25T04:34:38;96121.88;;;2.88;78.28
6423;BME280;3244;42.708;23.288;2023-01-25T04:37:05;96113.66;;;3.01;77.45
6423;BME280;3244;42.708;23.288;2023-01-25T04:39:31;96119.63;;;3.09;78.23
6423;BME280;3244;42.708;23.288;2023-01-25T04:41:59;96128.09;;;3.16;77.37
6423;BME280;3244;42.708;23.288;2023-01-25T04:44:26;96126.31;;;3.07;77.12
6423;BME280;3244;42.708;23.288;2023-01-25T04:46:53;96126.19;;;2.98;78.69
6423;BME280;3244;42.708;23.288;2023-01-25T04:49:20;96127.06;;;3.01;78.68
6423;BME280;3244;42.708;23.288;2023-01-25T04:51:46;96128.97;;;3.19;77.64
6423;BME280;3244;42.708;23.288;2023-01-25T04:54:13;96128.19;;;3.26;78.15
6423;BME280;3244;42.708;23.288;2023-01-25T04:56:40;96122.31;;;3.24;78.06
6423;BME280;3244;42.708;23.288;2023-01-25T04:59:09;96123.13;;;3.23;78.84
6423;BME280;3244;42.708;23.288;2023-01-25T05:01:36;96125.75;;;3.31;78.63
6423;BME280;3244;42.708;23.288;2023-01-25T05:04:03;96119.69;;;3.12;78.54
6423;BME280;3244;42.708;23.288;2023-01-25T05:06:29;96119.69;;;3.12;79.58
6423;BME280;3244;42.708;23.288;2023-01-25T05:08:56;96125.63;;;3.19;79.32
6423;BME280;3244;42.708;23.288;2023-01-25T05:11:23;96114.84;;;3.30;79.27
6423;BME280;3244;42.708;23.288;2023-01-25T05:13:50;96115.69;;;3.31;79.69
6423;BME280;3244;42.708;23.288;2023-01-25T05:16:20;96118.13;;;3.23;79.95
6423;BME280;3244;42.708;23.288;2023-01-25T05:18:47;96115.53;;;3.16;79.91
6423;BME280;3244;42.708;23.288;2023-01-25T05:21:13;96115.56;;;3.17;80.19
6423;BME280;3244;42.708;23.288;2023-01-25T05:23:54;96109.75;;;3.24;80.76
6423;BME280;3244;42.708;23.288;2023-01-25T05:26:21;96110.69;;;3.32;80.62
6423;BME280;3244;42.708;23.288;2023-01-25T05:29:06;96106.63;;;3.42;80.30
6423;BME280;3244;42.708;23.288;2023-01-25T05:31:34;96101.63;;;3.44;80.74
6423;BME280;3244;42.708;23.288;2023-01-25T05:34:01;96110.06;;;3.52;80.44
6423;BME280;3244;42.708;23.288;2023-01-25T05:36:27;96110.88;;;3.51;79.99
6423;BME280;3244;42.708;23.288;2023-01-25T05:38:54;96110.13;;;3.58;80.21
6423;BME280;3244;42.708;23.288;2023-01-25T05:41:21;96107.63;;;3.59;80.15
6423;BME280;3244;42.708;23.288;2023-01-25T05:43:48;96116.06;;;3.64;80.24
6423;BME280;3244;42.708;23.288;2023-01-25T05:46:14;96112.66;;;3.59;80.47
6423;BME280;3244;42.708;23.288;2023-01-25T05:48:43;96113.47;;;3.57;80.89
6423;BME280;3244;42.708;23.288;2023-01-25T05:51:09;96116.72;;;3.50;81.82
6423;BME280;3244;42.708;23.288;2023-01-25T05:53:36;96111.81;;;3.59;81.46
6423;BME280;3244;42.708;23.288;2023-01-25T05:56:03;96120.22;;;3.61;81.63
6423;BME280;3244;42.708;23.288;2023-01-25T05:58:30;96120.22;;;3.61;81.75
6423;BME280;3244;42.708;23.288;2023-01-25T06:00:58;96128.53;;;3.57;81.82
6423;BME280;3244;42.708;23.288;2023-01-25T06:03:25;96131.78;;;3.47;82.07
6423;BME280;3244;42.708;23.288;2023-01-25T06:05:55;96120.78;;;3.35;82.43
6423;BME280;3244;42.708;23.288;2023-01-25T06:08:21;96120.84;;;3.41;83.05
6423;BME280;3244;42.708;23.288;2023-01-25T06:10:49;96115.03;;;3.46;82.60
6423;BME280;3244;42.708;23.288;2023-01-25T06:13:16;96121.78;;;3.53;82.54
6423;BME280;3244;42.708;23.288;2023-01-25T06:15:42;96126.91;;;3.59;82.00
6423;BME280;3244;42.708;23.288;2023-01-25T06:18:16;96128.69;;;3.69;80.32
6423;BME280;3244;42.708;23.288;2023-01-25T06:20:43;96128.53;;;3.57;80.20
6423;BME280;3244;42.708;23.288;2023-01-25T06:23:11;96126.03;;;3.57;80.13
6423;BME280;3244;42.708;23.288;2023-01-25T06:25:38;96129.97;;;3.33;81.38
6423;BME280;3244;42.708;23.288;2023-01-25T06:28:05;96135.03;;;3.36;82.51
6423;BME280;3244;42.708;23.288;2023-01-25T06:30:32;96128.34;;;3.38;82.52
6423;BME280;3244;42.708;23.288;2023-01-25T06:32:59;96128.44;;;3.46;82.26
6423;BME280;3244;42.708;23.288;2023-01-25T06:35:27;96125.16;;;3.55;81.54
6423;BME280;3244;42.708;23.288;2023-01-25T06:37:54;96126.72;;;3.40;82.10
6423;BME280;3244;42.708;23.288;2023-01-25T06:40:23;96124.31;;;3.53;82.59
6423;BME280;3244;42.708;23.288;2023-01-25T06:42:49;96121.09;;;3.66;81.62
6423;BME280;3244;42.708;23.288;2023-01-25T06:45:17;96119.47;;;3.72;81.66
6423;BME280;3244;42.708;23.288;2023-01-25T06:47:43;96122.88;;;3.78;82.03
6423;BME280;3244;42.708;23.288;2023-01-25T06:50:11;96124.53;;;3.75;81.59
6423;BME280;3244;42.708;23.288;2023-01-25T06:52:38;96121.00;;;3.55;82.61
6423;BME280;3244;42.708;23.288;2023-01-25T06:55:06;96118.22;;;3.32;81.93
6423;BME280;3244;42.708;23.288;2023-01-25T06:57:38;96123.34;;;3.40;82.04
6423;BME280;3244;42.708;23.288;2023-01-25T07:00:06;96129.16;;;3.36;82.02
6423;BME280;3244;42.708;23.288;2023-01-25T07:02:33;96123.25;;;3.32;82.27
6423;BME280;3244;42.708;23.288;2023-01-25T07:05:01;96126.66;;;3.37;82.02
6423;BME280;3244;42.708;23.288;2023-01-25T07:07:28;96123.97;;;3.19;83.37
6423;BME280;3244;42.708;23.288;2023-01-25T07:09:54;96123.22;;;3.29;83.22
6423;BME280;3244;42.708;23.288;2023-01-25T07:12:23;96119.81;;;3.24;82.94
6423;BME280;3244;42.708;23.288;2023-01-25T07:14:52;96118.03;;;3.14;83.00
6423;BME280;3244;42.708;23.288;2023-01-25T07:17:18;96122.44;;;3.33;82.64
6423;BME280;3244;42.708;23.288;2023-01-25T07:19:46;96116.72;;;3.45;82.34
6423;BME280;3244;42.708;23.288;2023-01-25T07:22:12;96132.53;;;3.38;81.42
6423;BME280;3244;42.708;23.288;2023-01-25T07:24:39;96133.84;;;3.08;81.66
6423;BME280;3244;42.708;23.288;2023-01-25T07:27:07;96115.09;;;2.82;81.45
6423;BME280;3244;42.708;23.288;2023-01-25T07:29:34;96136.88;;;2.83;82.47
6423;BME280;3244;42.708;23.288;2023-01-25T07:32:02;96142.84;;;2.90;82.35
6423;BME280;3244;42.708;23.288;2023-01-25T07:34:30;96132.00;;;2.94;82.61
6423;BME280;3244;42.708;23.288;2023-01-25T07:36:57;96135.53;;;3.10;82.41
6423;BME280;3244;42.708;23.288;2023-01-25T07:39:24;96138.75;;;2.99;82.15
6423;BME280;3244;42.708;23.288;2023-01-25T07:41:51;96145.31;;;2.88;81.83
6423;BME280;3244;42.708;23.288;2023-01-25T07:44:17;96147.63;;;2.74;82.13
6423;BME280;3244;42.708;23.288;2023-01-25T07:46:44;96149.97;;;2.62;82.63
6423;BME280;3244;42.708;23.288;2023-01-25T07:49:13;96149.28;;;2.72;82.92
6423;BME280;3244;42.708;23.288;2023-01-25T07:51:39;96149.28;;;2.72;82.52
6423;BME280;3244;42.708;23.288;2023-01-25T07:54:09;96150.19;;;2.78;82.20
6423;BME280;3244;42.708;23.288;2023-01-25T07:56:36;96142.50;;;2.65;82.31
6423;BME280;3244;42.708;23.288;2023-01-25T07:59:05;96141.81;;;2.77;81.49
6423;BME280;3244;42.708;23.288;2023-01-25T08:01:33;96149.16;;;2.63;82.19
6423;BME280;3244;42.708;23.288;2023-01-25T08:04:02;96147.16;;;2.41;83.28
6423;BME280;3244;42.708;23.288;2023-01-25T08:06:33;96147.00;;;2.32;83.45
6423;BME280;3244;42.708;23.288;2023-01-25T08:09:05;96140.44;;;2.40;83.59
6423;BME280;3244;42.708;23.288;2023-01-25T08:11:33;96146.38;;;2.44;83.21
6423;BME280;3244;42.708;23.288;2023-01-25T08:13:59;96147.09;;;2.36;82.66
6423;BME280;3244;42.708;23.288;2023-01-25T08:16:28;96134.66;;;2.44;83.84
6423;BME280;3244;42.708;23.288;2023-01-25T08:18:56;96138.31;;;2.66;83.10
6423;BME280;3244;42.708;23.288;2023-01-25T08:21:24;96139.03;;;2.57;82.88
6423;BME280;3244;42.708;23.288;2023-01-25T08:23:56;96136.41;;;2.51;82.77
6423;BME280;3244;42.708;23.288;2023-01-25T08:26:23;96138.72;;;2.36;83.71
6423;BME280;3244;42.708;23.288;2023-01-25T08:28:49;96138.50;;;2.24;84.18
6423;BME280;3244;42.708;23.288;2023-01-25T08:31:19;96146.84;;;2.23;84.16
6423;BME280;3244;42.708;23.288;2023-01-25T08:33:47;96137.13;;;2.41;84.13
6423;BME280;3244;42.708;23.288;2023-01-25T08:36:14;96137.13;;;2.41;82.85
6423;BME280;3244;42.708;23.288;2023-01-25T08:38:42;96129.66;;;2.44;83.18
6423;BME280;3244;42.708;23.288;2023-01-25T08:41:12;96135.38;;;2.37;82.68
6423;BME280;3244;42.708;23.288;2023-01-25T08:43:40;96136.41;;;2.50;82.56
6423;BME280;3244;42.708;23.288;2023-01-25T08:46:07;96133.97;;;2.54;82.69
6423;BME280;3244;42.708;23.288;2023-01-25T08:48:34;96127.53;;;2.71;82.41
6423;BME280;3244;42.708;23.288;2023-01-25T08:51:01;96131.81;;;2.80;82.37
6423;BME280;3244;42.708;23.288;2023-01-25T08:53:28;96133.28;;;2.64;81.72
6423;BME280;3244;42.708;23.288;2023-01-25T08:55:55;96133.88;;;2.48;83.00
6423;BME280;3244;42.708;23.288;2023-01-25T08:58:23;96132.31;;;2.56;82.58
6423;BME280;3244;42.708;23.288;2023-01-25T09:00:50;96139.16;;;2.66;82.78
6423;BME280;3244;42.708;23.288;2023-01-25T09:03:17;96134.47;;;2.91;81.92
6423;BME280;3244;42.708;23.288;2023-01-25T09:05:44;96131.31;;;3.07;80.61
6423;BME280;3244;42.708;23.288;2023-01-25T09:08:10;96129.75;;;3.15;80.18
6423;BME280;3244;42.708;23.288;2023-01-25T09:10:37;96130.47;;;3.06;80.21
6423;BME280;3244;42.708;23.288;2023-01-25T09:13:04;96136.94;;;2.88;81.51
6423;BME280;3244;42.708;23.288;2023-01-25T09:15:32;96130.91;;;2.77;81.75
6423;BME280;3244;42.708;23.288;2023-01-25T09:17:59;96130.25;;;2.88;81.95
6423;BME280;3244;42.708;23.288;2023-01-25T09:20:25;96116.94;;;2.92;81.87
6423;BME280;3244;42.708;23.288;2023-01-25T09:22:53;96115.41;;;3.06;81.87
6423;BME280;3244;42.708;23.288;2023-01-25T09:25:20;96115.47;;;3.11;81.79
6423;BME280;3244;42.708;23.288;2023-01-25T09:27:48;96113.63;;;2.96;82.33
6423;BME280;3244;42.708;23.288;2023-01-25T09:30:15;96116.81;;;2.85;82.71
6423;BME280;3244;42.708;23.288;2023-01-25T09:32:43;96097.47;;;2.78;83.78
6423;BME280;3244;42.708;23.288;2023-01-25T09:35:10;96100.03;;;2.82;83.50
6423;BME280;3244;42.708;23.288;2023-01-25T09:37:36;96091.88;;;3.00;83.81
6423;BME280;3244;42.708;23.288;2023-01-25T09:40:05;96088.34;;;2.83;83.54
6423;BME280;3244;42.708;23.288;2023-01-25T09:42:45;96100.75;;;2.73;84.12
6423;BME280;3244;42.708;23.288;2023-01-25T09:45:22;96086.53;;;2.71;84.28
6423;BME280;3244;42.708;23.288;2023-01-25T09:47:59;96079.03;;;2.76;85.03
6423;BME280;3244;42.708;23.288;2023-01-25T09:50:35;96080.59;;;2.64;85.21
6423;BME280;3244;42.708;23.288;2023-01-25T09:53:30;96068.91;;;2.66;85.30
6423;BME280;3244;42.708;23.288;2023-01-25T09:56:00;96072.28;;;2.70;85.20
6423;BME280;3244;42.708;23.288;2023-01-25T09:58:32;96065.66;;;2.77;84.88
6423;BME280;3244;42.708;23.288;2023-01-25T10:01:15;96060.91;;;2.96;84.63
6423;BME280;3244;42.708;23.288;2023-01-25T10:03:52;96055.91;;;3.01;84.25
6423;BME280;3244;42.708;23.288;2023-01-25T10:06:21;96049.44;;;3.18;84.40
6423;BME280;3244;42.708;23.288;2023-01-25T10:08:56;96048.53;;;3.15;83.09
6423;BME280;3244;42.708;23.288;2023-01-25T10:11:27;96044.41;;;3.20;83.29
6423;BME280;3244;42.708;23.288;2023-01-25T10:13:56;96039.31;;;3.12;82.23
6423;BME280;3244;42.708;23.288;2023-01-25T10:16:26;96034.28;;;3.12;82.10
6423;BME280;3244;42.708;23.288;2023-01-25T10:19:03;96031.88;;;3.21;82.07
6423;BME280;3244;42.708;23.288;2023-01-25T10:21:34;96026.84;;;3.20;81.43
6423;BME280;3244;42.708;23.288;2023-01-25T10:27:18;96022.19;;;3.61;80.23
6423;BME280;3244;42.708;23.288;2023-01-25T10:29:51;96019.94;;;3.97;78.52
6423;BME280;3244;42.708;23.288;2023-01-25T10:32:25;96023.34;;;4.02;77.08
6423;BME280;3244;42.708;23.288;2023-01-25T10:35:08;96018.97;;;3.79;76.79
6423;BME280;3244;42.708;23.288;2023-01-25T10:37:37;96012.19;;;3.65;77.00
6423;BME280;3244;42.708;23.288;2023-01-25T10:40:13;96008.06;;;3.78;76.43
6423;BME280;3244;42.708;23.288;2023-01-25T10:42:45;96000.81;;;4.21;75.81
6423;BME280;3244;42.708;23.288;2023-01-25T10:45:15;95996.81;;;4.53;74.64
6423;BME280;3244;42.708;23.288;2023-01-25T10:47:46;95993.41;;;4.43;73.87
6423;BME280;3244;42.708;23.288;2023-01-25T10:50:43;95995.16;;;4.61;73.65
6423;BME280;3244;42.708;23.288;2023-01-25T10:53:25;95988.25;;;4.24;74.09
6423;BME280;3244;42.708;23.288;2023-01-25T10:55:57;95989.94;;;4.25;74.37
6423;BME280;3244;42.708;23.288;2023-01-25T10:58:29;95989.97;;;4.31;73.90
6423;BME280;3244;42.708;23.288;2023-01-25T11:00:57;95975.78;;;4.42;73.53
6423;BME280;3244;42.708;23.288;2023-01-25T11:03:33;95990.84;;;4.34;73.45
6423;BME280;3244;42.708;23.288;2023-01-25T11:06:02;95984.13;;;4.33;73.43
6423;BME280;3244;42.708;23.288;2023-01-25T11:08:32;95969.09;;;4.52;73.21
6423;BME280;3244;42.708;23.288;2023-01-25T11:11:13;95977.56;;;4.72;72.64
6423;BME280;3244;42.708;23.288;2023-01-25T11:13:40;95970.09;;;4.89;72.14
6423;BME280;3244;42.708;23.288;2023-01-25T11:16:29;95960.84;;;4.98;71.29
6423;BME280;3244;42.708;23.288;2023-01-25T11:18:57;95960.84;;;4.97;71.85
6423;BME280;3244;42.708;23.288;2023-01-25T11:21:27;95960.78;;;4.72;71.92
6423;BME280;3244;42.708;23.288;2023-01-25T11:23:59;95947.38;;;4.78;72.54
6423;BME280;3244;42.708;23.288;2023-01-25T11:26:27;95951.56;;;4.67;72.60
6423;BME280;3244;42.708;23.288;2023-01-25T11:29:06;95951.47;;;4.52;73.15
6423;BME280;3244;42.708;23.288;2023-01-25T11:31:33;95959.84;;;4.40;72.79
6423;BME280;3244;42.708;23.288;2023-01-25T11:34:00;95961.44;;;4.26;73.44
6423;BME280;3244;42.708;23.288;2023-01-25T11:36:34;95949.66;;;4.16;73.84
6423;BME280;3244;42.708;23.288;2023-01-25T11:39:15;95938.72;;;4.12;74.61
6423;BME280;3244;42.708;23.288;2023-01-25T11:41:58;95932.13;;;4.32;74.33
6423;BME280;3244;42.708;23.288;2023-01-25T11:44:53;95928.81;;;4.41;73.18
6423;BME280;3244;42.708;23.288;2023-01-25T11:47:38;95926.19;;;4.17;73.88
6423;BME280;3244;42.708;23.288;2023-01-25T11:50:12;95916.91;;;4.06;74.33
6423;BME280;3244;42.708;23.288;2023-01-25T11:52:59;95919.38;;;3.94;74.57
6423;BME280;3244;42.708;23.288;2023-01-25T11:55:31;95904.22;;;3.88;74.49
6423;BME280;3244;42.708;23.288;2023-01-25T11:58:14;95909.34;;;4.06;74.08
6423;BME280;3244;42.708;23.288;2023-01-25T12:00:56;95905.19;;;4.10;73.92
6423;BME280;3244;42.708;23.288;2023-01-25T12:06:53;95901.84;;;4.14;73.75
6423;BME280;3244;42.708;23.288;2023-01-25T12:12:20;95899.34;;;4.19;73.33
6423;BME280;3244;42.708;23.288;2023-01-25T12:15:04;95896.84;;;4.25;72.97
6423;BME280;3244;42.708;23.288;2023-01-25T12:18:01;95903.66;;;4.42;72.74
6423;BME280;3244;42.708;23.288;2023-01-25T12:20:52;95894.41;;;4.41;72.34
6423;BME280;3244;42.708;23.288;2023-01-25T12:23:32;95886.91;;;4.60;71.71
6423;BME280;3244;42.708;23.288;2023-01-25T12:26:11;95891.91;;;4.41;71.19
6423;BME280;3244;42.708;23.288;2023-01-25T12:28:47;95882.66;;;4.40;71.98
6423;BME280;3244;42.708;23.288;2023-01-25T12:31:19;95880.94;;;4.32;71.54
6423;BME280;3244;42.708;23.288;2023-01-25T12:33:52;95880.91;;;4.26;72.13
6423;BME280;3244;42.708;23.288;2023-01-25T12:36:26;95874.97;;;4.08;72.93
6423;BME280;3244;42.708;23.288;2023-01-25T12:38:57;95880.78;;;3.98;73.40
6423;BME280;3244;42.708;23.288;2023-01-25T12:41:34;95866.53;;;3.99;73.12
6423;BME280;3244;42.708;23.288;2023-01-25T12:44:10;95878.34;;;4.07;73.30
6423;BME280;3244;42.708;23.288;2023-01-25T12:46:45;95869.91;;;3.99;73.25
6423;BME280;3244;42.708;23.288;2023-01-25T12:49:21;95874.88;;;3.84;74.48
6423;BME280;3244;42.708;23.288;2023-01-25T12:51:50;95861.47;;;3.88;74.89
6423;BME280;3244;42.708;23.288;2023-01-25T12:54:22;95857.34;;;4.04;73.85
6423;BME280;3244;42.708;23.288;2023-01-25T12:56:59;95852.38;;;4.12;73.79
6423;BME280;3244;42.708;23.288;2023-01-25T12:59:36;95868.31;;;4.17;73.07
6423;BME280;3244;42.708;23.288;2023-01-25T13:02:45;95862.44;;;4.21;73.48
6423;BME280;3244;42.708;23.288;2023-01-25T13:05:24;95857.38;;;4.08;73.83
6423;BME280;3244;42.708;23.288;2023-01-25T13:08:00;95852.38;;;4.15;73.85
6423;BME280;3244;42.708;23.288;2023-01-25T13:10:32;95847.31;;;4.05;73.42
6423;BME280;3244;42.708;23.288;2023-01-25T13:13:02;95844.78;;;4.05;73.57
6423;BME280;3244;42.708;23.288;2023-01-25T13:15:44;95841.50;;;4.20;74.19
6423;BME280;3244;42.708;23.288;2023-01-25T13:18:36;95839.00;;;4.28;72.88
6423;BME280;3244;42.708;23.288;2023-01-25T13:21:07;95850.72;;;4.23;72.89
6423;BME280;3244;42.708;23.288;2023-01-25T13:23:37;95837.31;;;4.27;73.21
6423;BME280;3244;42.708;23.288;2023-01-25T13:26:36;95838.91;;;4.06;73.27
6423;BME280;3244;42.708;23.288;2023-01-25T13:35:36;95836.47;;;4.20;73.40
6423;BME280;3244;42.708;23.288;2023-01-25T13:38:31;95843.13;;;4.07;73.67
6423;BME280;3244;42.708;23.288;2023-01-25T13:41:15;95838.00;;;3.86;74.10
6423;BME280;3244;42.708;23.288;2023-01-25T13:43:47;95842.16;;;3.81;74.72
6423;BME280;3244;42.708;23.288;2023-01-25T13:46:21;95840.56;;;3.92;74.62
6423;BME280;3244;42.708;23.288;2023-01-25T13:48:58;95848.91;;;3.88;74.95
6423;BME280;3244;42.708;23.288;2023-01-25T13:51:28;95854.69;;;3.73;75.29
6423;BME280;3244;42.708;23.288;2023-01-25T13:53:59;95852.16;;;3.66;75.56